S/y Ilios — ZGHG8 — position and weather

sailwx.info

Track history (hours):
 
Tides and Currents Weather Stations Pressure Air Temp Water Temp Dewpoint Dewpoint Depression Visibility Wind Speed Wind Dir Waves Ship Positions

S/y Ilios

Last reported at 2018-Jun-06 00:20 UTC. Time now 2018-Jun-22 01:42 UTC.
Position N 37°44' E 023°16'.
Warning: this ship's position is 16 days out of date.

Length 27 m.

Type: Sailing vessel. MMSI: 319129100.

Date/timePositionNaut miles runAvg speedWind from/ knotsBaromVisibWave heightAir tempDewpointWater temp
2018-Jun-06 00:20N 37°44' E 023°16'4 9.7
2018-Jun-05 23:56N 37°47' E 023°13'4 9.8
2018-Jun-05 23:30N 37°50' E 023°09'5 9.8
2018-Jun-05 23:00N 37°53' E 023°04'3 6.0
2018-Jun-05 22:28N 37°55' E 023°01'3 4.2
2018-Jun-05 21:40N 37°57' E 022°57'2 8.7
2018-Jun-05 21:29N 37°58' E 022°56'  
2018-Jun-03 07:13N 38°19' E 015°36'2 9.9
2018-Jun-03 07:00N 38°20' E 015°34'5 9.5
2018-Jun-03 06:29N 38°22' E 015°28'94 9.1
2018-Jun-02 20:12N 38°35' E 013°29'4 8.7
2018-Jun-02 19:45N 38°36' E 013°24'  
2018-May-31 10:18N 39°21' E 002°47'3 9.4
2018-May-31 10:00N 39°23' E 002°45'4 9.0
2018-May-31 09:30N 39°27' E 002°42'4 8.7
2018-May-31 09:00N 39°31' E 002°40'3 6.1
2018-May-31 08:28N 39°34' E 002°38'0 0.0
2018-May-31 07:58N 39°34' E 002°38'0 0.0
2018-May-31 07:29N 39°34' E 002°38'3 5.6
2018-May-31 07:00N 39°32' E 002°36'3 3.0
2018-May-31 06:01N 39°31' E 002°33'0 0.1
2018-May-31 05:58N 39°31' E 002°33'0 0.0
2018-May-31 05:28N 39°31' E 002°33'0 0.0
2018-May-31 04:58N 39°31' E 002°33'0 0.0
2018-May-31 03:31N 39°31' E 002°33'0 0.0
2018-May-31 03:28N 39°31' E 002°33'0 0.0
2018-May-31 02:58N 39°31' E 002°33'0 0.0
2018-May-31 02:28N 39°31' E 002°33'0 0.0
2018-May-31 01:28N 39°31' E 002°33'0 0.0
2018-May-31 00:58N 39°31' E 002°33'0 0.0
2018-May-31 00:25N 39°31' E 002°33'0 0.0
2018-May-30 23:52N 39°31' E 002°33'0 0.0
2018-May-30 23:25N 39°31' E 002°33'0 0.0
2018-May-30 22:58N 39°31' E 002°33'0 0.0
2018-May-30 22:13N 39°31' E 002°33'0 0.0
2018-May-30 21:58N 39°31' E 002°33'0 0.0
2018-May-30 21:28N 39°31' E 002°33'0 0.0
2018-May-30 20:55N 39°31' E 002°33'0 0.0
2018-May-30 20:25N 39°31' E 002°33'0 0.0
2018-May-30 19:30N 39°31' E 002°33'0 0.0
2018-May-30 18:58N 39°31' E 002°33'0 0.0
2018-May-30 18:24N 39°31' E 002°33'0 0.0
2018-May-30 17:55N 39°31' E 002°33'0 0.0
2018-May-30 17:29N 39°31' E 002°33'0 0.0
2018-May-30 16:53N 39°31' E 002°33'0 0.0
2018-May-30 16:28N 39°31' E 002°33'0 0.0
2018-May-30 15:37N 39°31' E 002°33'0 0.0
2018-May-30 15:22N 39°31' E 002°33'0 0.0
2018-May-30 14:25N 39°31' E 002°33'0 0.0
2018-May-30 13:57N 39°31' E 002°33'0 0.0
2018-May-30 13:00N 39°31' E 002°33'0 0.0
2018-May-30 12:30N 39°31' E 002°33'0 0.0
2018-May-30 11:57N 39°31' E 002°33'0 0.0
2018-May-30 09:03N 39°31' E 002°33'0 0.0
2018-May-30 07:42N 39°31' E 002°33'0 0.1
2018-May-30 07:27N 39°31' E 002°33'0 0.0
2018-May-30 06:51N 39°31' E 002°33'0 0.0
2018-May-30 06:29N 39°31' E 002°33'0 0.0
2018-May-30 05:59N 39°31' E 002°33'0 0.0
2018-May-30 05:29N 39°31' E 002°33'0 0.0
2018-May-30 04:59N 39°31' E 002°33'0 0.0
2018-May-30 04:29N 39°31' E 002°33'0 0.0
2018-May-30 03:57N 39°31' E 002°33'0 0.1
2018-May-30 03:27N 39°31' E 002°33'0 0.0
2018-May-30 02:30N 39°31' E 002°33'0 0.0
2018-May-30 01:59N 39°31' E 002°33'0 0.0
2018-May-30 01:30N 39°31' E 002°33'0 0.0
2018-May-30 00:15N 39°31' E 002°33'0 0.0
2018-May-30 00:00N 39°31' E 002°33'0 0.0
2018-May-29 23:27N 39°31' E 002°33'0 0.0
2018-May-29 15:54N 39°31' E 002°33'0 0.0
2018-May-29 13:12N 39°31' E 002°33'0 0.1
2018-May-29 13:00N 39°31' E 002°33'0 0.0
2018-May-29 12:24N 39°31' E 002°33'0 0.0
2018-May-29 12:00N 39°31' E 002°33'0 0.0
2018-May-29 10:31N 39°31' E 002°33'0 0.0
2018-May-29 05:40N 39°31' E 002°33'0 0.0
2018-May-29 04:28N 39°31' E 002°33'0 0.0
2018-May-29 03:52N 39°31' E 002°33'0 0.0
2018-May-29 03:10N 39°31' E 002°33'0 0.0
2018-May-29 02:52N 39°31' E 002°33'0 0.0
2018-May-29 02:22N 39°31' E 002°33'0 0.0
2018-May-29 01:55N 39°31' E 002°33'0 0.0
2018-May-29 01:28N 39°31' E 002°33'0 0.0
2018-May-29 00:58N 39°31' E 002°33'0 0.0
2018-May-29 00:28N 39°31' E 002°33'0 0.0
2018-May-28 23:58N 39°31' E 002°33'0 0.0
2018-May-28 23:28N 39°31' E 002°33'0 0.0
2018-May-28 22:55N 39°31' E 002°33'0 0.0
2018-May-28 14:07N 39°31' E 002°33'0 0.0
2018-May-28 13:55N 39°31' E 002°33'0 0.0
2018-May-28 13:19N 39°31' E 002°33'0 0.0
2018-May-28 11:16N 39°31' E 002°33'0 0.0
2018-May-28 10:40N 39°31' E 002°33'0 0.0
2018-May-28 10:22N 39°31' E 002°33'0 0.0
2018-May-28 08:58N 39°31' E 002°33'0 0.0
2018-May-28 08:10N 39°31' E 002°33'0 0.0
2018-May-28 07:49N 39°31' E 002°33'0 0.0
2018-May-28 07:25N 39°31' E 002°33'0 0.0
2018-May-28 06:46N 39°31' E 002°33'0 0.1
2018-May-28 06:22N 39°31' E 002°33'0 0.0
2018-May-28 05:58N 39°31' E 002°33'0 0.0
2018-May-28 05:25N 39°31' E 002°33'0 0.0
2018-May-28 04:58N 39°31' E 002°33'0 0.0
2018-May-28 04:28N 39°31' E 002°33'0 0.0
2018-May-28 03:58N 39°31' E 002°33'0 0.0
2018-May-28 03:19N 39°31' E 002°33'0 0.0
2018-May-28 02:55N 39°31' E 002°33'0 0.0
2018-May-28 02:07N 39°31' E 002°33'0 0.0
2018-May-28 01:58N 39°31' E 002°33'0 0.0
2018-May-28 01:25N 39°31' E 002°33'0 0.0
2018-May-28 00:58N 39°31' E 002°33'0 0.0
2018-May-28 00:28N 39°31' E 002°33'0 0.0
2018-May-27 23:52N 39°31' E 002°33'0 0.0
2018-May-27 23:19N 39°31' E 002°33'0 0.0
2018-May-27 22:43N 39°31' E 002°33'0 0.0
2018-May-27 22:28N 39°31' E 002°33'0 0.0
2018-May-27 19:13N 39°31' E 002°33'0 0.0
2018-May-27 18:52N 39°31' E 002°33'0 0.0
2018-May-27 18:25N 39°31' E 002°33'0 0.0
2018-May-27 17:58N 39°31' E 002°33'0 0.0
2018-May-27 17:22N 39°31' E 002°33'0 0.0
2018-May-27 16:58N 39°31' E 002°33'0 0.0
2018-May-27 15:49N 39°31' E 002°33'0 0.0
2018-May-27 15:25N 39°31' E 002°33'0 0.0
2018-May-27 14:58N 39°31' E 002°33'0 0.0
2018-May-27 14:30N 39°31' E 002°33'0 0.0
2018-May-27 13:55N 39°31' E 002°33'0 0.0
2018-May-27 13:29N 39°31' E 002°33'0 0.0
2018-May-27 12:52N 39°31' E 002°33'0 0.0
2018-May-27 12:26N 39°31' E 002°33'0 0.0
2018-May-27 11:56N 39°31' E 002°33'0 0.0
2018-May-27 11:29N 39°31' E 002°33'0 0.0
2018-May-27 10:50N 39°31' E 002°33'0 0.0
2018-May-27 10:29N 39°31' E 002°33'0 0.0
2018-May-27 09:59N 39°31' E 002°33'0 0.0
2018-May-27 09:20N 39°31' E 002°33'0 0.0
2018-May-27 08:57N 39°31' E 002°33'0 0.0
2018-May-27 08:27N 39°31' E 002°33'0 0.0
2018-May-27 08:00N 39°31' E 002°33'0 0.0
2018-May-27 06:45N 39°31' E 002°33'0 0.1
2018-May-27 06:27N 39°31' E 002°33'0 0.0
2018-May-27 05:57N 39°31' E 002°33'0 0.0
2018-May-27 05:27N 39°31' E 002°33'0 0.0
2018-May-27 04:27N 39°31' E 002°33'0 0.0
2018-May-27 03:54N 39°31' E 002°33'0 0.0
2018-May-27 03:12N 39°31' E 002°33'0 0.0
2018-May-27 02:57N 39°31' E 002°33'0 0.0
2018-May-27 02:24N 39°31' E 002°33'0 0.0
2018-May-27 02:00N 39°31' E 002°33'0 0.0
2018-May-27 01:30N 39°31' E 002°33'0 0.0
2018-May-27 01:00N 39°31' E 002°33'0 0.0
2018-May-27 00:27N 39°31' E 002°33'  
Track history (hours):
 
Tides and Currents Weather Stations Pressure Air Temp Water Temp Dewpoint Dewpoint Depression Visibility Wind Speed Wind Dir Waves Ship Positions

S/y Ilios

Last reported at 2018-Jun-06 00:20 UTC. Time now 2018-Jun-22 01:42 UTC.
Position N 37°44' E 023°16'.
Warning: this ship's position is 16 days out of date.

Length 27 m.

Type: Sailing vessel. MMSI: 319129100.

Date/timePositionNaut miles runAvg speedWind from/ knotsBaromVisibWave heightAir tempDewpointWater temp
2018-Jun-06 00:20N 37°44' E 023°16'4 9.7
2018-Jun-05 23:56N 37°47' E 023°13'4 9.8
2018-Jun-05 23:30N 37°50' E 023°09'5 9.8
2018-Jun-05 23:00N 37°53' E 023°04'3 6.0
2018-Jun-05 22:28N 37°55' E 023°01'3 4.2
2018-Jun-05 21:40N 37°57' E 022°57'2 8.7
2018-Jun-05 21:29N 37°58' E 022°56'  
2018-Jun-03 07:13N 38°19' E 015°36'2 9.9
2018-Jun-03 07:00N 38°20' E 015°34'5 9.5
2018-Jun-03 06:29N 38°22' E 015°28'94 9.1
2018-Jun-02 20:12N 38°35' E 013°29'4 8.7
2018-Jun-02 19:45N 38°36' E 013°24'  
2018-May-31 10:18N 39°21' E 002°47'3 9.4
2018-May-31 10:00N 39°23' E 002°45'4 9.0
2018-May-31 09:30N 39°27' E 002°42'4 8.7
2018-May-31 09:00N 39°31' E 002°40'3 6.1
2018-May-31 08:28N 39°34' E 002°38'0 0.0
2018-May-31 07:58N 39°34' E 002°38'0 0.0
2018-May-31 07:29N 39°34' E 002°38'3 5.6
2018-May-31 07:00N 39°32' E 002°36'3 3.0
2018-May-31 06:01N 39°31' E 002°33'0 0.1
2018-May-31 05:58N 39°31' E 002°33'0 0.0
2018-May-31 05:28N 39°31' E 002°33'0 0.0
2018-May-31 04:58N 39°31' E 002°33'0 0.0
2018-May-31 03:31N 39°31' E 002°33'0 0.0
2018-May-31 03:28N 39°31' E 002°33'0 0.0
2018-May-31 02:58N 39°31' E 002°33'0 0.0
2018-May-31 02:28N 39°31' E 002°33'0 0.0
2018-May-31 01:28N 39°31' E 002°33'0 0.0
2018-May-31 00:58N 39°31' E 002°33'0 0.0
2018-May-31 00:25N 39°31' E 002°33'0 0.0
2018-May-30 23:52N 39°31' E 002°33'0 0.0
2018-May-30 23:25N 39°31' E 002°33'0 0.0
2018-May-30 22:58N 39°31' E 002°33'0 0.0
2018-May-30 22:13N 39°31' E 002°33'0 0.0
2018-May-30 21:58N 39°31' E 002°33'0 0.0
2018-May-30 21:28N 39°31' E 002°33'0 0.0
2018-May-30 20:55N 39°31' E 002°33'0 0.0
2018-May-30 20:25N 39°31' E 002°33'0 0.0
2018-May-30 19:30N 39°31' E 002°33'0 0.0
2018-May-30 18:58N 39°31' E 002°33'0 0.0
2018-May-30 18:24N 39°31' E 002°33'0 0.0
2018-May-30 17:55N 39°31' E 002°33'0 0.0
2018-May-30 17:29N 39°31' E 002°33'0 0.0
2018-May-30 16:53N 39°31' E 002°33'0 0.0
2018-May-30 16:28N 39°31' E 002°33'0 0.0
2018-May-30 15:37N 39°31' E 002°33'0 0.0
2018-May-30 15:22N 39°31' E 002°33'0 0.0
2018-May-30 14:25N 39°31' E 002°33'0 0.0
2018-May-30 13:57N 39°31' E 002°33'0 0.0
2018-May-30 13:00N 39°31' E 002°33'0 0.0
2018-May-30 12:30N 39°31' E 002°33'0 0.0
2018-May-30 11:57N 39°31' E 002°33'0 0.0
2018-May-30 09:03N 39°31' E 002°33'0 0.0
2018-May-30 07:42N 39°31' E 002°33'0 0.1
2018-May-30 07:27N 39°31' E 002°33'0 0.0
2018-May-30 06:51N 39°31' E 002°33'0 0.0
2018-May-30 06:29N 39°31' E 002°33'0 0.0
2018-May-30 05:59N 39°31' E 002°33'0 0.0
2018-May-30 05:29N 39°31' E 002°33'0 0.0
2018-May-30 04:59N 39°31' E 002°33'0 0.0
2018-May-30 04:29N 39°31' E 002°33'0 0.0
2018-May-30 03:57N 39°31' E 002°33'0 0.1
2018-May-30 03:27N 39°31' E 002°33'0 0.0
2018-May-30 02:30N 39°31' E 002°33'0 0.0
2018-May-30 01:59N 39°31' E 002°33'0 0.0
2018-May-30 01:30N 39°31' E 002°33'0 0.0
2018-May-30 00:15N 39°31' E 002°33'0 0.0
2018-May-30 00:00N 39°31' E 002°33'0 0.0
2018-May-29 23:27N 39°31' E 002°33'0 0.0
2018-May-29 15:54N 39°31' E 002°33'0 0.0
2018-May-29 13:12N 39°31' E 002°33'0 0.1
2018-May-29 13:00N 39°31' E 002°33'0 0.0
2018-May-29 12:24N 39°31' E 002°33'0 0.0
2018-May-29 12:00N 39°31' E 002°33'0 0.0
2018-May-29 10:31N 39°31' E 002°33'0 0.0
2018-May-29 05:40N 39°31' E 002°33'0 0.0
2018-May-29 04:28N 39°31' E 002°33'0 0.0
2018-May-29 03:52N 39°31' E 002°33'0 0.0
2018-May-29 03:10N 39°31' E 002°33'0 0.0
2018-May-29 02:52N 39°31' E 002°33'0 0.0
2018-May-29 02:22N 39°31' E 002°33'0 0.0
2018-May-29 01:55N 39°31' E 002°33'0 0.0
2018-May-29 01:28N 39°31' E 002°33'0 0.0
2018-May-29 00:58N 39°31' E 002°33'0 0.0
2018-May-29 00:28N 39°31' E 002°33'0 0.0
2018-May-28 23:58N 39°31' E 002°33'0 0.0
2018-May-28 23:28N 39°31' E 002°33'0 0.0
2018-May-28 22:55N 39°31' E 002°33'0 0.0
2018-May-28 14:07N 39°31' E 002°33'0 0.0
2018-May-28 13:55N 39°31' E 002°33'0 0.0
2018-May-28 13:19N 39°31' E 002°33'0 0.0
2018-May-28 11:16N 39°31' E 002°33'0 0.0
2018-May-28 10:40N 39°31' E 002°33'0 0.0
2018-May-28 10:22N 39°31' E 002°33'0 0.0
2018-May-28 08:58N 39°31' E 002°33'0 0.0
2018-May-28 08:10N 39°31' E 002°33'0 0.0
2018-May-28 07:49N 39°31' E 002°33'0 0.0
2018-May-28 07:25N 39°31' E 002°33'0 0.0
2018-May-28 06:46N 39°31' E 002°33'0 0.1
2018-May-28 06:22N 39°31' E 002°33'0 0.0
2018-May-28 05:58N 39°31' E 002°33'0 0.0
2018-May-28 05:25N 39°31' E 002°33'0 0.0
2018-May-28 04:58N 39°31' E 002°33'0 0.0
2018-May-28 04:28N 39°31' E 002°33'0 0.0
2018-May-28 03:58N 39°31' E 002°33'0 0.0
2018-May-28 03:19N 39°31' E 002°33'0 0.0
2018-May-28 02:55N 39°31' E 002°33'0 0.0
2018-May-28 02:07N 39°31' E 002°33'0 0.0
2018-May-28 01:58N 39°31' E 002°33'0 0.0
2018-May-28 01:25N 39°31' E 002°33'0 0.0
2018-May-28 00:58N 39°31' E 002°33'0 0.0
2018-May-28 00:28N 39°31' E 002°33'0 0.0
2018-May-27 23:52N 39°31' E 002°33'0 0.0
2018-May-27 23:19N 39°31' E 002°33'0 0.0
2018-May-27 22:43N 39°31' E 002°33'0 0.0
2018-May-27 22:28N 39°31' E 002°33'0 0.0
2018-May-27 19:13N 39°31' E 002°33'0 0.0
2018-May-27 18:52N 39°31' E 002°33'0 0.0
2018-May-27 18:25N 39°31' E 002°33'0 0.0
2018-May-27 17:58N 39°31' E 002°33'0 0.0
2018-May-27 17:22N 39°31' E 002°33'0 0.0
2018-May-27 16:58N 39°31' E 002°33'0 0.0
2018-May-27 15:49N 39°31' E 002°33'0 0.0
2018-May-27 15:25N 39°31' E 002°33'0 0.0
2018-May-27 14:58N 39°31' E 002°33'0 0.0
2018-May-27 14:30N 39°31' E 002°33'0 0.0
2018-May-27 13:55N 39°31' E 002°33'0 0.0
2018-May-27 13:29N 39°31' E 002°33'0 0.0
2018-May-27 12:52N 39°31' E 002°33'0 0.0
2018-May-27 12:26N 39°31' E 002°33'0 0.0
2018-May-27 11:56N 39°31' E 002°33'0 0.0
2018-May-27 11:29N 39°31' E 002°33'0 0.0
2018-May-27 10:50N 39°31' E 002°33'0 0.0
2018-May-27 10:29N 39°31' E 002°33'0 0.0
2018-May-27 09:59N 39°31' E 002°33'0 0.0
2018-May-27 09:20N 39°31' E 002°33'0 0.0
2018-May-27 08:57N 39°31' E 002°33'0 0.0
2018-May-27 08:27N 39°31' E 002°33'0 0.0
2018-May-27 08:00N 39°31' E 002°33'0 0.0
2018-May-27 06:45N 39°31' E 002°33'0 0.1
2018-May-27 06:27N 39°31' E 002°33'0 0.0
2018-May-27 05:57N 39°31' E 002°33'0 0.0
2018-May-27 05:27N 39°31' E 002°33'0 0.0
2018-May-27 04:27N 39°31' E 002°33'0 0.0
2018-May-27 03:54N 39°31' E 002°33'0 0.0
2018-May-27 03:12N 39°31' E 002°33'0 0.0
2018-May-27 02:57N 39°31' E 002°33'0 0.0
2018-May-27 02:24N 39°31' E 002°33'0 0.0
2018-May-27 02:00N 39°31' E 002°33'0 0.0
2018-May-27 01:30N 39°31' E 002°33'0 0.0
2018-May-27 01:00N 39°31' E 002°33'0 0.0
2018-May-27 00:27N 39°31' E 002°33'  

Dump ship's entire track history